x

Half Moon Bay - 24nm Ssw Of San Francisco, Ca (46012) Wave Buoy

12:50am - Wed 22nd Nov 2017 All times are PST. -8 hours from GMT.

  • Sig Wave height 4.6ft
  • Swell Direction
  • Peak Period 7s
  • Average Period 7s
  • Wind
    2mph, 4mph gusts
  • Sea Temp 59°f
  • Air Temp 60°f
  • Sea Pressure 1018.9mb
  • Half Moon Bay - 24nm Ssw Of San Francisco, Ca
  • Half Moon Bay - 24nm Ssw Of San Francisco, Ca

More Historic Weather Station data

Upgrade to MSW Pro to gain access to the past 30 days of data for over 8000 Wavebouys and Weather Stations around the globe.

Join

Comparision Forecast

View Surf forecast
   
Wed 11/22 12:50am 4.5ft 7s 7s 2 4 mph 1018.9mb 59f 60f
Tue 11/21 7:50pm 4ft 11s 7s 7 7 mph 1019.3mb 59f 61f
6:50pm 3.5ft 11s 7s 7 7 mph 1019mb 60f 61f
5:50pm 3.5ft 11s 7s 7 7 mph 1018.4mb 60f 61f
4:50pm 3.5ft 12s 7s 4 7 mph 1017.6mb 60f 61f
3:50pm 4ft 12s 8s 4 4 mph 1017.4mb 60f 62f
2:50pm 3.5ft 12s 7s 4 7 mph 1017.4mb 61f 61f
1:50pm 4ft 11s 8s 2 2 mph 1017.7mb 60f 62f
12:50pm 4.5ft 12s 8s 4 4 mph 1018.1mb 60f 61f
11:50am 4.5ft 12s 8s 4 4 mph 1018.9mb 60f 61f
10:50am 5ft 12s 8s 4 7 mph 1019.8mb 59f 61f
9:50am 5ft 12s 8s 4 4 mph 1020.1mb 59f 60f
8:50am 4.5ft 11s 8s 4 4 mph 1020mb 59f 60f
7:50am 5ft 12s 8s 4 7 mph 1019.9mb 59f 60f
6:50am 5ft 12s 8s 4 7 mph 1019.7mb 59f 59f
5:50am 5.5ft 11s 8s 4 7 mph 1019.2mb 59f 59f
4:50am 5ft 12s 10s 2 2 mph 1018.7mb 59f 60f
3:50am 4.5ft 11s 9s 2 4 mph 1018.5mb 59f 60f
2:50am 5ft 12s 10s 4 4 mph 1018.6mb 59f 59f
1:50am 5.5ft 11s 9s 4 7 mph 1018.6mb 59f 59f
12:50am 5ft 13s 9s 7 7 mph 1019mb 59f 59f
Mon 11/20 11:50pm 4.5ft 12s 9s 4 7 mph 1019.2mb 59f 59f
10:50pm 5ft 12s 9s 7 9 mph 1019.3mb 59f 59f
9:50pm 5ft 12s 8s 7 9 mph 1019.2mb 59f 59f
8:50pm 5.5ft 12s 9s 4 7 mph 1018.8mb 59f 59f
7:50pm 5ft 13s 8s 7 7 mph 1019mb 59f 59f
6:50pm 5.5ft 12s 8s 4 7 mph 1018.4mb 59f 59f
5:50pm 5ft 13s 8s 9 11 mph 1017.9mb 59f 59f
4:50pm 5ft 12s 8s 11 13 mph 1018.1mb 59f 58f
3:50pm 4.5ft 12s 7s 9 11 mph 1018.1mb 59f 59f
2:50pm 4ft 12s 6s 11 13 mph 1018.2mb 59f 58f
1:50pm 4.5ft 12s 7s 13 13 mph 1018.1mb 59f 58f
12:50pm 4.5ft 12s 7s 11 13 mph 1018mb 59f 59f
11:50am 4ft 12s 7s 11 13 mph 1018.6mb 59f 59f
10:50am 3.5ft 12s 7s 13 16 mph 1019mb 59f 59f
9:50am 3ft 12s 7s 13 16 mph 1018.5mb 59f 60f
8:50am 3ft 12s 9s 13 18 mph 1017.7mb 59f 60f
7:50am 3.5ft 12s 9s 9 11 mph 1017.6mb 59f 59f
6:50am 3ft 12s 10s 9 9 mph 1017.3mb 59f 59f
5:50am 3.5ft 13s 10s 9 9 mph 1017mb 59f 59f
4:50am 3ft 13s 11s 7 9 mph 1016.7mb 59f 59f
3:50am 2.5ft 13s 10s 7 7 mph 1017.2mb 59f 59f
2:50am 3ft 13s 11s 7 7 mph 1017.7mb 59f 59f
1:50am 3ft 13s 11s 4 7 mph 1017.6mb 59f 59f
12:50am 3ft 13s 11s 7 9 mph 1018.3mb 59f 59f
Sun 11/19 11:50pm 3ft 14s 10s 4 4 mph 1018mb 59f 58f
10:50pm 3ft 14s 10s 4 7 mph 1017.8mb 59f 58f
9:50pm 3ft 14s 10s 7 9 mph 1018.1mb 59f 58f
8:50pm 3.5ft 14s 10s 9 9 mph 1018.1mb 59f 58f
7:50pm 3ft 14s 10s 2 4 mph 1018.3mb 59f 58f
6:50pm 3.5ft 14s 9s 4 7 mph 1018.7mb 59f 58f
5:50pm 3ft 15s 9s 4 7 mph 1018.7mb 59f 58f
4:50pm 3ft 13s 9s 4 7 mph 1018.2mb 59f 57f
3:50pm 3ft 13s 8s 4 4 mph 1018.3mb 60f 58f
2:50pm 3.5ft 14s 8s 2 4 mph 1018mb 61f 57f
1:50pm 3.5ft 15s 8s  -  2 mph 1018.3mb 60f 59f
12:50pm 3ft 14s 8s 2 2 mph 1018.7mb 60f 57f
11:50am 3.5ft 12s 7s  -  2 mph 1019.5mb 59f 57f
10:50am 3.5ft 8s 8s 2 4 mph 1020mb 59f 56f
9:50am 3.5ft 13s 8s 2 4 mph 1020.4mb 59f 56f
8:50am 4ft 8s 8s 2 4 mph 1020.6mb 59f 56f
7:50am 3.5ft 8s 8s 4 7 mph 1020.4mb 59f 56f
6:50am 4.5ft 8s 8s 7 9 mph 1020.2mb 59f 55f
5:50am 4.5ft 8s 8s 9 11 mph 1019.9mb 59f 56f
4:50am 4.5ft 8s 8s 7 9 mph 1020.3mb 59f 56f
3:50am 3.5ft 13s 8s 9 11 mph 1020.7mb 59f 57f
2:50am 3.5ft 9s 8s 9 11 mph 1020.9mb 59f 57f
1:50am 4ft 9s 8s 9 11 mph 1020.8mb 59f 57f
12:50am 3.5ft 12s 8s 11 11 mph 1021mb 59f 57f
Sat 11/18 11:50pm 3.5ft 12s 8s 11 13 mph 1021.1mb 59f 57f
10:50pm 4ft 10s 8s 11 11 mph 1021.2mb 59f 57f
9:50pm 4ft 10s 8s 11 13 mph 1020.6mb 59f 57f
8:50pm 3.5ft 10s 7s 11 13 mph 1020.8mb 59f 57f
7:50pm 4ft 10s 7s 11 13 mph 1020.9mb 59f 57f
6:50pm 4.5ft 13s 7s 13 13 mph 1020.8mb 59f 57f
5:50pm 4.5ft 10s 7s 13 13 mph 1020.6mb 59f 57f
4:50pm 4.5ft 10s 7s 11 13 mph 1020.4mb 59f 57f
3:50pm 4.5ft 14s 7s 11 13 mph 1020.7mb 59f 57f
2:50pm 5ft 9s 7s 11 13 mph 1021mb 59f 57f
1:50pm 5ft 8s 7s 11 13 mph 1021.5mb 59f 57f
12:50pm 5.5ft 10s 7s 13 16 mph 1021.6mb 59f 56f
11:50am 6ft 10s 8s 11 13 mph 1022.6mb 59f 56f
10:50am 6ft 9s 8s 13 16 mph 1023mb 59f 56f